Time;durP1;ratioP1;P1;durP2;ratioP2;P2;SDS_P1;SDS_P2;PMS_P1;PMS_P2;Temp;Humidity;BMP_temperature;BMP_pressure;BME280_temperature;BME280_humidity;BME280_pressure;Samples;Min_cycle;Max_cycle;Signal;HPM_P1;HPM_P2
2022/05/11 00:01:10;;;;;;;3.08;2.88;;;;;;;11.87;92.23;63224.78;5081345;28;20533;-74
2022/05/11 00:03:37;;;;;;;3.08;2.88;;;;;;;11.87;92.04;63222.22;5063566;28;20233;-74
2022/05/11 00:06:05;;;;;;;3.13;2.92;;;;;;;11.91;91.79;63223.31;5076041;28;20531;-73
2022/05/11 00:08:32;;;;;;;3.85;3.55;;;;;;;11.93;92.59;63225.38;5068475;28;20446;-73
2022/05/11 00:10:59;;;;;;;3.15;2.97;;;;;;;11.87;94.29;63219.69;5065347;28;20244;-73
2022/05/11 00:13:27;;;;;;;3.28;3.08;;;;;;;11.81;94.99;63215.47;5080774;28;20380;-73
2022/05/11 00:15:54;;;;;;;3.40;3.10;;;;;;;11.79;95.27;63211.38;5082873;28;20458;-73
2022/05/11 00:18:21;;;;;;;4.25;3.38;;;;;;;11.81;95.08;63216.00;5081289;28;20226;-74
2022/05/11 00:20:48;;;;;;;3.30;3.10;;;;;;;11.71;94.76;63210.75;5072222;28;20217;-75
2022/05/11 00:23:17;;;;;;;5.28;3.95;;;;;;;11.44;100.00;63180.22;5083513;28;20250;-73
2022/05/11 00:25:45;;;;;;;4.32;4.03;;;;;;;11.45;100.00;63176.66;5080423;28;20216;-74
2022/05/11 00:28:12;;;;;;;4.97;4.47;;;;;;;11.46;100.00;63179.72;5081374;28;20193;-74
2022/05/11 00:30:39;;;;;;;4.70;4.40;;;;;;;11.52;100.00;63183.41;5079361;28;20220;-74
2022/05/11 00:33:06;;;;;;;5.00;3.70;;;;;;;11.53;100.00;63190.03;5083601;28;20204;-75
2022/05/11 00:35:34;;;;;;;4.85;4.10;;;;;;;11.39;100.00;63172.47;5083302;28;20246;-74
2022/05/11 00:38:02;;;;;;;4.75;3.58;;;;;;;11.37;100.00;63173.47;5076677;28;20505;-74
2022/05/11 00:40:30;;;;;;;3.83;3.38;;;;;;;11.35;99.65;63168.84;5063047;28;20537;-74
2022/05/11 00:42:57;;;;;;;3.55;3.15;;;;;;;11.03;100.00;63130.63;5066297;28;20278;-75
2022/05/11 00:45:24;;;;;;;4.30;3.90;;;;;;;10.85;100.00;63119.63;5082801;28;20223;-73
2022/05/11 00:47:54;;;;;;;4.10;3.78;;;;;;;10.84;100.00;63116.03;5072313;28;20201;-74
2022/05/11 00:50:23;;;;;;;3.88;3.42;;;;;;;10.82;100.00;63113.47;5069820;28;20457;-74
2022/05/11 00:52:53;;;;;;;5.88;4.47;;;;;;;10.85;100.00;63119.09;5080818;28;20188;-75
2022/05/11 00:55:25;;;;;;;4.30;3.90;;;;;;;10.85;100.00;63116.56;5082877;28;20231;-75
2022/05/11 00:57:59;;;;;;;4.35;3.97;;;;;;;10.82;100.00;63116.50;5065219;28;20201;-74
2022/05/11 01:00:27;;;;;;;3.95;3.70;;;;;;;10.88;100.00;63117.63;5063525;28;20221;-75
2022/05/11 01:02:58;;;;;;;5.13;3.85;;;;;;;10.93;100.00;63122.81;5065806;28;20457;-75
2022/05/11 01:05:25;;;;;;;4.20;3.58;;;;;;;10.89;100.00;63116.13;5073679;28;20262;-74
2022/05/11 01:07:55;;;;;;;3.47;3.28;;;;;;;10.94;100.00;63126.38;5081226;28;20556;-74
2022/05/11 01:10:22;;;;;;;6.57;3.00;;;;;;;10.93;100.00;63122.28;5084853;28;20236;-74
2022/05/11 01:12:52;;;;;;;6.03;3.55;;;;;;;10.95;100.00;63129.97;5084773;28;20267;-75
2022/05/11 01:15:21;;;;;;;4.22;3.92;;;;;;;10.90;100.00;63121.72;5075276;28;20438;-74
2022/05/11 01:17:49;;;;;;;4.40;3.65;;;;;;;10.91;100.00;63123.28;5070804;28;20208;-74
2022/05/11 01:20:19;;;;;;;5.18;3.72;;;;;;;10.89;100.00;63120.72;5083893;28;20287;-75
2022/05/11 01:22:52;;;;;;;4.20;3.90;;;;;;;10.91;100.00;63120.22;5082503;28;20196;-74
2022/05/11 01:25:21;;;;;;;4.20;3.80;;;;;;;10.89;100.00;63118.66;5075312;28;20224;-74
2022/05/11 01:27:49;;;;;;;6.82;3.83;;;;;;;10.88;100.00;63114.56;5076168;28;20356;-74
2022/05/11 01:30:18;;;;;;;4.57;4.13;;;;;;;10.86;100.00;63115.56;5084736;28;20212;-75
2022/05/11 01:32:47;;;;;;;5.60;4.13;;;;;;;10.81;100.00;63110.38;5077750;28;20202;-74
2022/05/11 01:35:50;;;;;;;4.55;4.18;;;;;;;10.85;100.00;63114.53;5068183;28;20233;-75
2022/05/11 01:38:32;;;;;;;4.35;4.05;;;;;;;10.85;100.00;63114.00;5081750;28;20196;-74
2022/05/11 01:41:01;;;;;;;5.93;4.00;;;;;;;10.80;100.00;63111.91;5071573;28;20221;-74
2022/05/11 01:43:30;;;;;;;4.05;3.80;;;;;;;10.81;100.00;63115.47;5079683;28;20232;-75
2022/05/11 01:45:57;;;;;;;4.00;3.53;;;;;;;10.78;100.00;63111.84;5084768;28;20225;-75
2022/05/11 01:48:25;;;;;;;4.05;3.65;;;;;;;10.84;100.00;63113.50;5084635;28;20520;-74
2022/05/11 01:50:52;;;;;;;3.58;3.28;;;;;;;10.82;100.00;63113.97;5080474;28;20459;-73
2022/05/11 01:53:20;;;;;;;3.90;3.70;;;;;;;10.80;100.00;63106.81;5076631;28;20193;-75
2022/05/11 01:55:47;;;;;;;4.65;4.22;;;;;;;10.74;100.00;63108.22;5087565;28;20427;-75
2022/05/11 01:58:16;;;;;;;3.55;3.25;;;;;;;10.75;100.00;63106.22;5088002;28;20223;-74
2022/05/11 02:00:45;;;;;;;5.30;3.70;;;;;;;10.70;100.00;63101.03;5075502;28;20232;-75
2022/05/11 02:03:12;;;;;;;4.30;3.42;;;;;;;10.71;100.00;63102.59;5073409;28;20283;-74
2022/05/11 02:08:24;;;;;;;3.65;3.35;;;;;;;10.66;100.00;63097.41;5085561;28;20216;-75
2022/05/11 02:10:51;;;;;;;3.88;3.53;;;;;;;10.69;100.00;63100.00;5087349;28;20545;-74
2022/05/11 02:13:19;;;;;;;4.07;3.72;;;;;;;10.81;100.00;63110.38;5087917;28;20239;-74
2022/05/11 02:15:46;;;;;;;3.22;3.03;;;;;;;10.81;100.00;63112.41;5087737;28;20213;-74
2022/05/11 02:18:12;;;;;;;3.53;3.13;;;;;;;10.83;100.00;63112.47;5082814;28;20199;-73
2022/05/11 02:20:40;;;;;;;5.00;3.67;;;;;;;10.90;100.00;63124.28;5085723;28;20213;-74
2022/05/11 02:23:07;;;;;;;48.63;31.08;;;;;;;10.94;100.00;63123.84;5088018;28;20192;-73
2022/05/11 02:25:33;;;;;;;5.78;5.28;;;;;;;10.98;100.00;63132.56;5085119;28;20258;-75
2022/05/11 02:28:00;;;;;;;9.80;6.20;;;;;;;10.99;100.00;63131.06;5083041;28;20212;-74
2022/05/11 02:30:32;;;;;;;3.58;3.38;;;;;;;10.97;100.00;63126.44;5085522;28;20269;-75
2022/05/11 02:32:59;;;;;;;3.40;3.15;;;;;;;10.91;100.00;63123.28;5085152;28;20536;-74
2022/05/11 02:35:27;;;;;;;3.22;3.03;;;;;;;10.96;100.00;63125.41;5082858;28;20221;-74
2022/05/11 02:37:56;;;;;;;3.35;3.05;;;;;;;11.00;100.00;63134.63;5070041;28;20197;-74
2022/05/11 02:40:26;;;;;;;3.47;3.20;;;;;;;11.05;100.00;63134.72;5084733;28;20230;-75
2022/05/11 02:42:53;;;;;;;4.70;3.35;;;;;;;11.09;100.00;63147.03;5081834;28;20243;-75
2022/05/11 02:45:21;;;;;;;3.33;3.00;;;;;;;11.16;100.00;63154.28;5068295;28;20275;-75
2022/05/11 02:47:51;;;;;;;3.00;2.80;;;;;;;11.20;100.00;63152.81;5066074;28;20243;-74
2022/05/11 02:50:20;;;;;;;4.00;3.72;;;;;;;11.25;100.00;63158.50;5088175;28;20212;-74
2022/05/11 02:52:47;;;;;;;3.95;3.60;;;;;;;11.29;100.00;63162.13;5086919;28;20230;-74
2022/05/11 02:55:15;;;;;;;3.78;3.35;;;;;;;11.29;100.00;63169.75;5082654;28;20441;-75
2022/05/11 02:57:42;;;;;;;3.25;3.05;;;;;;;11.30;100.00;63163.16;5085149;28;20489;-74
2022/05/11 03:00:12;;;;;;;4.80;3.40;;;;;;;11.36;100.00;63169.38;5083599;28;20388;-74
2022/05/11 03:02:39;;;;;;;3.53;3.22;;;;;;;11.37;100.00;63168.38;5080628;28;20215;-73
2022/05/11 03:05:10;;;;;;;19.05;12.73;;;;;;;11.36;100.00;63169.38;5065594;28;20232;-73
2022/05/11 03:07:37;;;;;;;18.77;12.85;;;;;;;11.41;100.00;63174.53;5064596;28;20208;-74
2022/05/11 03:10:05;;;;;;;17.15;10.98;;;;;;;11.47;100.00;63181.28;5068605;28;20442;-74
2022/05/11 03:12:32;;;;;;;4.80;4.38;;;;;;;11.50;100.00;63184.38;5071343;28;20425;-74
2022/05/11 03:15:00;;;;;;;6.85;3.20;;;;;;;11.54;100.00;63188.53;5083950;28;20238;-74
2022/05/11 03:17:27;;;;;;;3.72;3.42;;;;;;;11.55;100.00;63189.56;5082858;28;20203;-74
2022/05/11 03:19:53;;;;;;;5.28;4.15;;;;;;;11.62;100.00;63196.81;5084486;28;20223;-74
2022/05/11 03:22:22;;;;;;;3.67;3.38;;;;;;;11.68;100.00;63199.47;5078509;28;20220;-74
2022/05/11 03:24:48;;;;;;;3.70;3.42;;;;;;;11.72;100.00;63208.72;5083701;28;20235;-74
2022/05/11 03:27:15;;;;;;;4.25;3.55;;;;;;;11.84;100.00;63216.06;5083993;28;20200;-74
2022/05/11 03:29:42;;;;;;;4.75;3.85;;;;;;;11.80;100.00;63217.53;5082374;28;20216;-75
2022/05/11 03:34:54;;;;;;;4.20;3.80;;;;;;;11.94;100.00;63232.03;5065648;28;20268;-75
2022/05/11 03:37:22;;;;;;;6.70;4.18;;;;;;;11.99;100.00;63236.69;5084112;28;20242;-74
2022/05/11 03:39:49;;;;;;;8.93;4.40;;;;;;;12.02;100.00;63237.25;5078400;28;20269;-74
2022/05/11 03:42:21;;;;;;;3.85;3.50;;;;;;;12.04;100.00;63242.41;5083531;28;20204;-75
2022/05/11 03:44:48;;;;;;;4.10;3.78;;;;;;;12.07;100.00;63242.44;5083941;28;20240;-74
2022/05/11 03:47:15;;;;;;;4.03;3.72;;;;;;;12.10;100.00;63246.06;5078945;28;20192;-74
2022/05/11 03:49:42;;;;;;;3.67;3.35;;;;;;;12.08;100.00;63240.91;5077441;28;20225;-74
2022/05/11 03:52:09;;;;;;;4.05;3.35;;;;;;;12.18;100.00;63248.72;5083568;28;20272;-75
2022/05/11 03:54:37;;;;;;;4.75;3.70;;;;;;;12.27;100.00;63263.16;5082935;28;20220;-74
2022/05/11 03:57:05;;;;;;;6.15;4.18;;;;;;;12.28;100.00;63267.28;5082249;28;20209;-74
2022/05/11 03:59:34;;;;;;;3.88;3.63;;;;;;;12.28;100.00;63264.19;5069144;28;20229;-75
2022/05/11 04:02:01;;;;;;;4.30;3.55;;;;;;;12.28;100.00;63264.19;5067328;28;20213;-73
2022/05/11 04:04:28;;;;;;;4.20;3.63;;;;;;;12.24;100.00;63260.03;5083211;28;20256;-75
2022/05/11 04:06:54;;;;;;;4.25;3.83;;;;;;;12.31;100.00;63267.31;5076906;28;20197;-74
2022/05/11 04:09:21;;;;;;;4.18;3.92;;;;;;;12.28;100.00;63264.72;5083272;28;20216;-74
2022/05/11 04:11:49;;;;;;;6.43;3.70;;;;;;;12.28;100.00;63266.75;5082759;28;20224;-75
2022/05/11 04:14:16;;;;;;;4.57;3.60;;;;;;;12.26;100.00;63259.56;5082180;28;20216;-74
2022/05/11 04:16:43;;;;;;;4.05;3.72;;;;;;;12.27;100.00;63265.72;5070097;28;20200;-74
2022/05/11 04:19:10;;;;;;;3.45;3.25;;;;;;;12.28;100.00;63264.72;5063059;28;20221;-74
2022/05/11 04:21:37;;;;;;;4.00;3.67;;;;;;;12.35;100.00;63268.91;5069985;28;20524;-74
2022/05/11 04:24:05;;;;;;;4.60;3.72;;;;;;;12.43;100.00;63277.72;5081403;28;20278;-73
2022/05/11 04:26:32;;;;;;;4.20;3.90;;;;;;;12.49;100.00;63289.03;5065070;28;20201;-74
2022/05/11 04:29:00;;;;;;;4.75;4.25;;;;;;;12.60;100.00;63300.44;5072735;28;20205;-74
2022/05/11 04:31:27;;;;;;;5.80;4.72;;;;;;;12.55;100.00;63292.72;5082338;28;20215;-74
2022/05/11 04:33:54;;;;;;;5.95;5.22;;;;;;;12.47;100.00;63283.91;5079410;28;20415;-74
2022/05/11 04:36:21;;;;;;;9.77;6.13;;;;;;;12.23;100.00;63256.47;5082650;28;20214;-74
2022/05/11 04:38:48;;;;;;;10.90;7.05;;;;;;;12.05;100.00;63238.31;5083152;28;20212;-73
2022/05/11 04:41:15;;;;;;;6.72;6.13;;;;;;;12.22;100.00;63258.50;5082557;28;20230;-73
2022/05/11 04:43:42;;;;;;;8.45;7.05;;;;;;;12.01;100.00;63239.28;5068495;28;20201;-74
2022/05/11 04:46:10;;;;;;;11.68;6.53;;;;;;;12.11;100.00;63244.56;5067665;28;20212;-73
2022/05/11 04:48:37;;;;;;;7.20;6.50;;;;;;;12.04;100.00;63241.88;5083307;28;20409;-74
2022/05/11 04:51:04;;;;;;;7.75;7.00;;;;;;;12.14;100.00;63249.69;5075694;28;20212;-74
2022/05/11 04:53:32;;;;;;;10.05;7.05;;;;;;;12.14;100.00;63249.69;5081239;28;20201;-74
2022/05/11 04:55:59;;;;;;;9.77;7.80;;;;;;;12.16;100.00;63252.28;5082750;28;20217;-74
2022/05/11 04:58:25;;;;;;;8.30;7.35;;;;;;;12.46;100.00;63287.94;5082881;28;20197;-73
2022/05/11 05:00:54;;;;;;;12.98;8.32;;;;;;;12.48;100.00;63282.38;5080021;28;20378;-73
2022/05/11 05:03:23;;;;;;;9.32;8.25;;;;;;;12.46;100.00;63285.94;5080803;28;20193;-74
2022/05/11 05:05:50;;;;;;;17.25;7.90;;;;;;;12.66;100.00;63304.13;5079073;28;20229;-74
2022/05/11 05:08:17;;;;;;;10.93;8.00;;;;;;;12.91;100.00;63329.50;5079000;28;20247;-74
2022/05/11 05:10:44;;;;;;;12.80;7.28;;;;;;;13.13;100.00;63356.97;5072876;28;20224;-74
2022/05/11 05:13:12;;;;;;;9.88;8.63;;;;;;;13.16;100.00;63354.94;5068078;28;20197;-74
2022/05/11 05:15:42;;;;;;;8.00;7.22;;;;;;;13.40;100.00;63379.84;5076409;28;20208;-74
2022/05/11 05:18:09;;;;;;;9.38;7.65;;;;;;;13.30;100.00;63372.03;5078483;28;20212;-74
2022/05/11 05:20:38;;;;;;;10.63;8.05;;;;;;;13.35;100.00;63375.19;5075011;28;20287;-74
2022/05/11 05:23:05;;;;;;;11.48;7.93;;;;;;;13.63;100.00;63409.34;5082422;28;20219;-75
2022/05/11 05:25:32;;;;;;;12.60;7.57;;;;;;;13.88;98.98;63432.75;5084688;28;20229;-74
2022/05/11 05:31:04;;;;;;;11.18;7.57;;;;;;;13.98;97.95;63439.53;5080598;28;20211;-75
2022/05/11 05:33:31;;;;;;;8.77;7.85;;;;;;;13.97;96.68;63438.47;5085998;28;20302;-75
2022/05/11 05:36:01;;;;;;;10.95;8.25;;;;;;;14.18;97.42;63458.25;5083598;28;20216;-75
2022/05/11 05:38:29;;;;;;;14.27;7.82;;;;;;;14.24;95.97;63464.47;5077822;28;20208;-74
2022/05/11 05:40:56;;;;;;;9.18;7.20;;;;;;;14.47;94.72;63492.97;5080689;28;20326;-75
2022/05/11 05:43:23;;;;;;;9.20;6.18;;;;;;;14.53;92.23;63494.59;5084399;28;20208;-74
2022/05/11 05:45:51;;;;;;;7.38;6.40;;;;;;;14.36;91.94;63481.56;5077504;28;20232;-75
2022/05/11 05:48:19;;;;;;;11.85;5.78;;;;;;;14.23;90.62;63466.00;5073823;28;20477;-75
2022/05/11 05:50:46;;;;;;;7.75;5.75;;;;;;;14.37;90.60;63480.56;5083408;28;20528;-76
2022/05/11 05:53:19;;;;;;;6.60;5.22;;;;;;;14.30;90.09;63470.22;5084783;28;20193;-75
2022/05/11 05:55:46;;;;;;;8.50;5.30;;;;;;;14.10;89.74;63457.13;5075356;28;20263;-75
2022/05/11 05:58:13;;;;;;;10.15;5.68;;;;;;;14.16;88.78;63458.22;5085753;28;20208;-75
2022/05/11 06:00:40;;;;;;;8.05;5.43;;;;;;;14.08;89.33;63450.41;5084636;28;20244;-76
2022/05/11 06:03:07;;;;;;;9.13;5.95;;;;;;;14.12;90.46;63449.44;5083137;28;20205;-76
2022/05/11 06:05:34;;;;;;;9.82;6.10;;;;;;;14.27;91.06;63469.66;5081768;28;20228;-75
2022/05/11 06:08:00;;;;;;;9.82;5.70;;;;;;;14.35;90.41;63475.94;5079438;28;21352;-75
2022/05/11 06:10:29;;;;;;;5.70;5.30;;;;;;;14.52;87.27;63498.69;5072828;28;20529;-78
2022/05/11 06:12:56;;;;;;;7.82;5.18;;;;;;;14.26;86.45;63471.69;5080619;28;20251;-79
2022/05/11 06:15:23;;;;;;;6.88;5.20;;;;;;;14.28;86.43;63470.69;5077594;28;20575;-78
2022/05/11 06:17:50;;;;;;;14.32;6.10;;;;;;;14.02;89.74;63446.22;5079354;28;20196;-77
2022/05/11 06:20:17;;;;;;;6.35;5.82;;;;;;;14.11;89.57;63453.03;5079011;28;20216;-77
2022/05/11 06:22:43;;;;;;;7.93;6.82;;;;;;;14.03;91.60;63449.84;5076276;28;20382;-76
2022/05/11 06:25:10;;;;;;;7.10;6.18;;;;;;;14.21;92.15;63469.03;5079045;28;20232;-76
2022/05/11 06:27:39;;;;;;;12.50;6.20;;;;;;;14.50;90.96;63490.97;5075375;28;20525;-76
2022/05/11 06:30:07;;;;;;;8.38;6.97;;;;;;;14.58;91.74;63501.84;5076402;28;20263;-77
2022/05/11 06:32:34;;;;;;;6.85;6.22;;;;;;;14.61;91.54;63508.06;5073526;28;20197;-77
2022/05/11 06:35:01;;;;;;;9.77;6.57;;;;;;;14.82;90.16;63526.78;5075392;28;20259;-76
2022/05/11 06:37:28;;;;;;;10.77;6.75;;;;;;;15.10;87.67;63555.84;5074417;28;20335;-77
2022/05/11 06:39:56;;;;;;;6.90;6.07;;;;;;;15.40;84.03;63586.53;5077735;28;20260;-77
2022/05/11 06:42:24;;;;;;;8.65;6.40;;;;;;;15.31;83.62;63580.25;5074890;28;20405;-77
2022/05/11 06:44:52;;;;;;;9.80;7.03;;;;;;;15.35;84.19;63581.31;5080458;28;20426;-77
2022/05/11 06:47:20;;;;;;;13.70;6.40;;;;;;;15.35;83.86;63581.31;5076629;28;20204;-77
2022/05/11 06:49:47;;;;;;;16.98;7.70;;;;;;;15.38;84.18;63589.56;5076007;28;20223;-76
2022/05/11 06:52:14;;;;;;;7.88;7.05;;;;;;;15.45;83.81;63591.72;5085180;28;20197;-77
2022/05/11 07:00:11;;;;;;;8.68;7.30;;;;;;;15.57;84.82;63611.91;5075614;28;20265;-77
2022/05/11 07:02:39;;;;;;;8.05;6.78;;;;;;;15.64;83.06;63611.50;5068052;28;20197;-77
2022/05/11 07:05:08;;;;;;;9.68;7.47;;;;;;;15.80;81.32;63630.69;5073000;28;20409;-78
2022/05/11 07:07:35;;;;;;;6.82;5.97;;;;;;;15.78;78.84;63631.19;5082059;28;20196;-77
2022/05/11 07:10:03;;;;;;;6.63;5.85;;;;;;;15.87;77.38;63637.97;5068444;28;20252;-78
2022/05/11 07:12:35;;;;;;;9.07;6.00;;;;;;;16.16;76.53;63668.13;5068516;28;20206;-76
2022/05/11 07:15:05;;;;;;;11.75;6.28;;;;;;;16.30;75.04;63679.59;5065073;28;20287;-77
2022/05/11 07:17:35;;;;;;;6.53;5.78;;;;;;;16.38;74.03;63690.47;5077417;28;20200;-77
2022/05/11 07:20:06;;;;;;;7.38;5.50;;;;;;;16.39;72.24;63696.69;5078367;28;20224;-76
2022/05/11 07:22:33;;;;;;;13.63;5.72;;;;;;;16.47;70.14;63697.81;5075762;28;20200;-77
2022/05/11 07:25:00;;;;;;;5.03;4.63;;;;;;;16.36;68.91;63686.34;5066271;28;20244;-76
2022/05/11 07:27:27;;;;;;;5.43;4.97;;;;;;;16.51;66.61;63704.56;5077709;28;20200;-76
2022/05/11 07:29:55;;;;;;;5.38;4.88;;;;;;;16.91;65.85;63743.09;5083761;28;20223;-76
2022/05/11 07:32:23;;;;;;;7.18;5.35;;;;;;;17.17;64.85;63770.16;5077560;28;20208;-76
2022/05/11 07:34:52;;;;;;;5.55;5.05;;;;;;;16.90;63.40;63742.56;5084109;28;20227;-77
2022/05/11 07:37:19;;;;;;;9.43;5.90;;;;;;;16.93;63.79;63747.72;5079808;28;20196;-75
2022/05/11 07:39:46;;;;;;;7.00;4.47;;;;;;;17.03;62.04;63756.09;5076414;28;20216;-76
2022/05/11 07:42:13;;;;;;;5.47;5.07;;;;;;;17.03;63.10;63758.16;5069764;28;20209;-76
2022/05/11 07:44:40;;;;;;;6.38;4.65;;;;;;;17.12;62.03;63764.94;5072466;28;20388;-76
2022/05/11 07:47:10;;;;;;;5.75;5.32;;;;;;;17.17;60.97;63770.66;5081374;28;20218;-75
2022/05/11 07:49:37;;;;;;;6.18;4.97;;;;;;;17.37;62.04;63793.00;5078742;28;20514;-76
2022/05/11 07:52:07;;;;;;;11.40;4.88;;;;;;;17.22;61.17;63775.34;5075484;28;20223;-76
2022/05/11 07:54:34;;;;;;;12.43;5.30;;;;;;;17.40;62.22;63798.72;5069667;28;20374;-75
2022/05/11 07:59:56;;;;;;;9.68;4.78;;;;;;;17.49;59.15;63806.06;5065691;28;20238;-76
2022/05/11 08:02:26;;;;;;;5.75;4.35;;;;;;;17.68;58.35;63825.84;5072073;28;20207;-75
2022/05/11 08:04:57;;;;;;;7.18;4.32;;;;;;;17.76;56.21;63831.59;5085058;28;20544;-76
2022/05/11 08:07:27;;;;;;;12.77;3.88;;;;;;;17.99;57.59;63857.59;5066348;28;20204;-76
2022/05/11 08:09:57;;;;;;;6.60;3.95;;;;;;;17.81;55.04;63839.38;5072318;28;20220;-76
2022/05/11 08:12:24;;;;;;;4.35;3.88;;;;;;;17.79;53.40;63837.28;5085197;28;20359;-77
2022/05/11 08:14:51;;;;;;;5.55;3.60;;;;;;;17.91;53.10;63849.28;5082314;28;20222;-76
2022/05/11 08:17:24;;;;;;;3.60;2.80;;;;;;;17.98;51.94;63861.72;5075241;28;20207;-77
2022/05/11 08:19:51;;;;;;;5.65;3.33;;;;;;;18.03;51.32;63859.19;5080396;28;20408;-76
2022/05/11 08:22:18;;;;;;;15.70;4.78;;;;;;;18.05;52.10;63866.44;5075857;28;20237;-76
2022/05/11 08:24:47;;;;;;;6.03;3.55;;;;;;;18.26;52.88;63885.72;5078103;28;20224;-77
2022/05/11 08:27:17;;;;;;;5.22;3.60;;;;;;;18.41;52.48;63903.97;5072443;28;20243;-78
2022/05/11 08:35:13;;;;;;;4.50;2.30;;;;;;;18.32;49.50;63889.94;5083576;28;20413;-77
2022/05/11 08:37:40;;;;;;;2.55;2.45;;;;;;;18.54;48.55;63920.09;5067622;28;20486;-77
2022/05/11 08:40:12;;;;;;;5.20;2.50;;;;;;;18.71;49.35;63930.06;5068281;28;20213;-77
2022/05/11 08:42:39;;;;;;;6.13;2.72;;;;;;;18.74;49.08;63935.25;5071714;28;20243;-77
2022/05/11 08:45:08;;;;;;;3.15;2.85;;;;;;;18.80;49.45;63938.91;5079582;28;20227;-76
2022/05/11 08:47:45;;;;;;;2.95;2.85;;;;;;;18.95;48.58;63957.13;5069536;28;20207;-76
2022/05/11 08:50:16;;;;;;;3.03;2.75;;;;;;;18.89;49.39;63948.31;5078223;28;20222;-77
2022/05/11 08:52:50;;;;;;;2.75;2.55;;;;;;;18.96;47.20;63955.59;5080804;28;20569;-77
2022/05/11 08:55:31;;;;;;;2.10;2.00;;;;;;;18.90;45.61;63947.28;5078527;28;20347;-77
2022/05/11 08:58:02;;;;;;;2.20;1.85;;;;;;;18.90;46.42;63951.91;5081290;28;20195;-75
2022/05/11 09:00:29;;;;;;;2.50;2.40;;;;;;;18.99;46.07;63964.41;5073995;28;20230;-76
2022/05/11 09:03:00;;;;;;;4.80;2.17;;;;;;;19.14;46.93;63974.34;5082199;28;20209;-76
2022/05/11 09:05:31;;;;;;;3.10;2.90;;;;;;;19.21;46.89;63987.34;5085076;28;20236;-77
2022/05/11 09:07:59;;;;;;;2.83;2.60;;;;;;;19.13;45.53;63973.84;5075869;28;20468;-77
2022/05/11 09:10:29;;;;;;;2.58;2.30;;;;;;;19.31;44.39;63995.22;5076799;28;20219;-77
2022/05/11 09:12:59;;;;;;;2.35;2.25;;;;;;;19.43;44.30;64004.63;5083221;28;20196;-77
2022/05/11 09:15:55;;;;;;;2.65;2.55;;;;;;;19.41;45.67;64005.63;5078882;28;20220;-77
2022/05/11 09:18:23;;;;;;;2.50;2.40;;;;;;;19.52;42.00;64019.16;5072571;28;20391;-76
2022/05/11 09:20:53;;;;;;;5.03;2.47;;;;;;;19.35;42.39;63996.28;5086173;28;20223;-76
2022/05/11 09:23:30;;;;;;;4.10;2.03;;;;;;;19.24;42.58;63993.06;5070527;28;20201;-75
2022/05/11 09:26:01;;;;;;;2.30;2.05;;;;;;;19.36;43.89;64003.00;5068084;28;20227;-77
2022/05/11 09:28:31;;;;;;;4.43;2.80;;;;;;;19.21;44.71;63984.75;5083004;28;20250;-77
2022/05/11 09:31:01;;;;;;;3.65;3.25;;;;;;;19.45;44.57;64001.53;5085094;28;20224;-76
2022/05/11 09:33:31;;;;;;;2.60;2.45;;;;;;;19.79;44.26;64041.66;5069981;28;20234;-77
2022/05/11 09:36:01;;;;;;;2.92;2.20;;;;;;;19.78;43.25;64045.75;5081307;28;20528;-77
2022/05/11 09:38:34;;;;;;;2.10;2.00;;;;;;;19.52;42.23;64019.69;5085988;28;20204;-76
2022/05/11 09:41:11;;;;;;;2.47;2.35;;;;;;;19.63;44.21;64022.91;5074800;28;20219;-76
2022/05/11 09:43:40;;;;;;;2.95;2.58;;;;;;;19.71;41.58;64039.00;5086988;28;20214;-75
2022/05/11 09:46:22;;;;;;;2.78;2.58;;;;;;;20.02;40.38;64068.25;5080803;28;20512;-76
2022/05/11 09:49:01;;;;;;;2.28;2.17;;;;;;;19.57;42.14;64026.97;5084195;28;20282;-75
2022/05/11 09:51:33;;;;;;;2.13;1.98;;;;;;;19.66;41.91;64031.19;5082883;28;20523;-75
2022/05/11 09:54:15;;;;;;;3.20;2.72;;;;;;;19.70;41.69;64032.25;5080912;28;20196;-76
2022/05/11 09:56:54;;;;;;;2.40;2.20;;;;;;;19.87;41.37;64055.16;5081628;28;20218;-77
2022/05/11 09:59:24;;;;;;;4.68;3.17;;;;;;;20.04;39.93;64070.84;5082214;28;20269;-75
2022/05/11 10:01:59;;;;;;;2.65;1.95;;;;;;;19.88;38.41;64056.22;5082105;28;20234;-76
2022/05/11 10:04:34;;;;;;;3.35;2.38;;;;;;;19.69;38.55;64033.81;5084546;28;20442;-76
2022/05/11 10:07:01;;;;;;;9.90;2.30;;;;;;;19.90;38.12;64055.69;5085322;28;20455;-74
2022/05/11 10:09:35;;;;;;;2.30;2.17;;;;;;;20.05;38.65;64069.28;5075760;28;20269;-74
2022/05/11 10:12:06;;;;;;;3.35;2.45;;;;;;;20.35;39.92;64100.09;5076462;28;20203;-74
2022/05/11 10:22:59;;;;;;;2.50;2.40;;;;;;;20.49;40.68;64117.28;5074634;28;20200;-74
2022/05/11 10:25:29;;;;;;;2.10;1.90;;;;;;;20.60;39.58;64126.19;5072601;28;20395;-74
2022/05/11 10:28:06;;;;;;;2.55;1.70;;;;;;;20.74;39.26;64140.81;5072627;28;20438;-76
2022/05/11 10:30:39;;;;;;;3.72;2.08;;;;;;;21.13;38.25;64189.31;5073514;28;20220;-75
2022/05/11 10:33:30;;;;;;;3.28;1.83;;;;;;;21.02;40.20;64174.72;5072355;28;20263;-74
2022/05/11 10:36:04;;;;;;;4.07;2.20;;;;;;;21.33;39.36;64207.59;5074613;28;20211;-74
2022/05/11 10:38:45;;;;;;;5.22;4.18;;;;;;;21.26;41.09;64194.59;5078229;28;20200;-74
2022/05/11 10:41:23;;;;;;;2.95;2.75;;;;;;;21.66;38.59;64239.47;5079000;28;20196;-74
2022/05/11 10:44:17;;;;;;;2.92;2.70;;;;;;;21.97;38.03;64270.84;5084687;28;20202;-74
2022/05/11 10:46:52;;;;;;;7.03;2.35;;;;;;;22.28;38.53;64301.16;5076861;28;20228;-74
2022/05/11 10:49:34;;;;;;;3.88;2.30;;;;;;;22.36;38.28;64314.75;5079593;28;20508;-74
2022/05/11 10:52:23;;;;;;;3.13;2.00;;;;;;;21.81;37.66;64252.06;5080034;28;20233;-74
2022/05/11 10:55:03;;;;;;;1.73;1.63;;;;;;;22.31;36.96;64311.59;5074333;28;20231;-74
2022/05/11 10:57:39;;;;;;;2.58;2.47;;;;;;;22.08;37.84;64285.47;5068594;28;20279;-73
2022/05/11 11:00:12;;;;;;;2.55;2.33;;;;;;;22.20;37.36;64295.41;5082989;28;20231;-74
2022/05/11 11:03:11;;;;;;;2.42;2.28;;;;;;;22.09;38.02;64283.41;5084304;28;20197;-74
2022/05/11 11:07:11;;;;;;;3.08;2.22;;;;;;;22.76;38.35;64356.06;5077000;28;20225;-73
2022/05/11 11:08:50;;;;;;;3.63;2.30;;;;;;;23.15;36.63;64393.69;5081401;28;20203;-74
2022/05/11 11:11:24;;;;;;;2.45;2.28;;;;;;;23.09;35.83;64384.84;5081206;28;20204;-75
2022/05/11 11:13:59;;;;;;;4.60;2.38;;;;;;;22.64;36.17;64346.63;5082120;28;20400;-73
2022/05/11 11:16:32;;;;;;;2.83;2.55;;;;;;;22.28;37.25;64305.84;5074049;28;20379;-76
2022/05/11 11:19:00;;;;;;;2.38;2.20;;;;;;;21.91;36.88;64264.59;5077494;28;20291;-76
2022/05/11 11:21:28;;;;;;;2.67;2.35;;;;;;;21.99;36.60;64275.53;5073715;28;20203;-75
2022/05/11 11:24:17;;;;;;;13.18;3.15;;;;;;;21.01;44.34;64169.00;5075356;28;20254;-75
2022/05/11 11:26:50;;;;;;;6.43;2.95;;;;;;;20.42;46.36;64112.56;5080612;28;20540;-74
2022/05/11 11:29:20;;;;;;;6.00;2.90;;;;;;;20.08;47.47;64077.59;5084317;28;20572;-74
2022/05/11 11:32:13;;;;;;;4.35;3.22;;;;;;;19.79;48.37;64042.19;5081968;28;20222;-73
2022/05/11 11:34:42;;;;;;;6.65;3.30;;;;;;;19.98;47.58;64064.59;5066965;28;20232;-74
2022/05/11 11:37:40;;;;;;;2.80;2.55;;;;;;;19.90;46.11;64056.22;5083936;28;20263;-75
2022/05/11 11:40:25;;;;;;;2.67;2.40;;;;;;;19.55;46.04;64022.81;5080498;28;20539;-73
2022/05/11 11:42:52;;;;;;;8.25;2.20;;;;;;;19.47;45.35;64011.38;5073002;28;20301;-74
2022/05/11 11:46:04;;;;;;;4.10;2.00;;;;;;;19.38;44.46;64007.69;5081510;28;20224;-77
2022/05/11 11:48:34;;;;;;;9.10;2.58;;;;;;;19.35;44.95;63994.22;5074165;28;20207;-74
2022/05/11 11:51:03;;;;;;;2.97;1.40;;;;;;;19.28;44.84;63994.66;5076621;28;20219;-75
2022/05/11 11:53:42;;;;;;;5.72;2.17;;;;;;;19.36;46.15;63999.91;5081642;28;20212;-75
2022/05/11 11:56:36;;;;;;;1.52;1.52;;;;;;;19.62;44.60;64026.50;5082977;28;20203;-75
2022/05/11 11:59:06;;;;;;;2.22;1.60;;;;;;;20.25;44.33;64094.84;5079488;28;20307;-74
2022/05/11 12:01:36;;;;;;;4.30;1.85;;;;;;;20.52;43.08;64126.13;5080828;28;20192;-75
2022/05/11 12:04:12;;;;;;;1.98;1.80;;;;;;;21.00;41.38;64173.13;5077454;28;20418;-74
2022/05/11 12:15:13;;;;;;;1.33;1.25;;;;;;;20.27;42.00;64089.69;5082737;28;20219;-74
2022/05/11 12:17:42;;;;;;;1.65;1.55;;;;;;;20.65;40.81;64134.53;5076426;28;20469;-76
2022/05/11 12:20:14;;;;;;;3.42;1.30;;;;;;;21.43;39.75;64214.94;5069621;28;20234;-75
2022/05/11 12:22:44;;;;;;;1.50;1.50;;;;;;;22.24;38.16;64301.66;5070040;28;20203;-76